Time;durP1;ratioP1;P1;durP2;ratioP2;P2;SDS_P1;SDS_P2;PMS_P1;PMS_P2;Temp;Humidity;BMP_temperature;BMP_pressure;BME280_temperature;BME280_humidity;BME280_pressure;Samples;Min_cycle;Max_cycle;Signal;HPM_P1;HPM_P2
2023/03/18 00:01:50;;;;;;;9.68;4.93;;;;;;;12.12;56.87;100157.88;4147097;28;20125;-72
2023/03/18 00:03:53;;;;;;;12.93;6.10;;;;;;;12.12;56.84;100163.06;4134560;28;20096;-74
2023/03/18 00:06:03;;;;;;;10.25;5.85;;;;;;;12.10;57.02;100166.53;4158393;28;20467;-73
2023/03/18 00:08:08;;;;;;;9.57;5.47;;;;;;;12.10;56.63;100158.72;4146785;28;20473;-73
2023/03/18 00:10:11;;;;;;;;;;;;;;;12.01;57.39;100156.94;4155229;28;20044;-74
2023/03/18 00:12:14;;;;;;;10.30;5.43;;;;;;;12.02;57.04;100166.50;4150169;28;19944;-73
2023/03/18 00:14:18;;;;;;;10.23;5.80;;;;;;;12.04;57.48;100170.84;4150366;28;20045;-73
2023/03/18 00:16:21;;;;;;;10.80;6.10;;;;;;;12.05;57.28;100161.31;4156766;28;20223;-73
2023/03/18 00:18:24;;;;;;;15.32;5.45;;;;;;;12.05;57.38;100170.00;4159732;28;20497;-73
2023/03/18 00:20:37;;;;;;;13.50;5.40;;;;;;;12.09;56.80;100176.09;4156898;28;20591;-74
2023/03/18 00:22:42;;;;;;;7.78;4.60;;;;;;;12.08;56.81;100173.50;4155546;28;20128;-74
2023/03/18 00:24:47;;;;;;;11.13;5.97;;;;;;;12.06;56.86;100170.84;4149665;28;20585;-74
2023/03/18 00:26:50;;;;;;;9.90;5.70;;;;;;;12.13;56.37;100179.56;4151164;28;20057;-73
2023/03/18 00:28:56;;;;;;;11.02;5.32;;;;;;;12.09;56.63;100173.50;4154957;28;20053;-73
2023/03/18 00:31:07;;;;;;;11.95;5.82;;;;;;;12.14;56.03;100182.19;4159675;28;20072;-73
2023/03/18 00:33:11;;;;;;;11.15;6.35;;;;;;;12.14;56.14;100181.31;4125559;28;20046;-74
2023/03/18 00:35:14;;;;;;;9.18;5.15;;;;;;;12.11;56.57;100173.50;4121286;28;20035;-73
2023/03/18 00:37:29;;;;;;;11.65;4.85;;;;;;;12.04;56.60;100175.19;4156206;28;20041;-72
2023/03/18 00:39:34;;;;;;;9.90;5.88;;;;;;;12.00;57.18;100191.69;4133321;28;20448;-73
2023/03/18 00:41:39;;;;;;;11.10;5.50;;;;;;;12.02;56.80;100192.56;4131941;28;20133;-73
2023/03/18 00:43:48;;;;;;;10.38;4.90;;;;;;;12.02;57.02;100201.25;4141843;28;20468;-74
2023/03/18 00:45:51;;;;;;;10.98;4.90;;;;;;;12.04;56.63;100196.91;4141227;28;20038;-73
2023/03/18 00:47:53;;;;;;;12.75;5.40;;;;;;;12.09;56.68;100201.25;4154384;28;20107;-74
2023/03/18 00:49:56;;;;;;;11.05;6.20;;;;;;;12.08;57.08;100191.72;4131159;28;20457;-73
2023/03/18 00:52:00;;;;;;;11.38;5.60;;;;;;;12.07;56.42;100200.41;4151579;28;20041;-74
2023/03/18 00:54:06;;;;;;;8.48;5.40;;;;;;;12.01;57.05;100196.88;4133815;28;20461;-73
2023/03/18 00:56:09;;;;;;;11.25;5.50;;;;;;;12.00;56.48;100200.38;4158092;28;20452;-73
2023/03/18 00:58:13;;;;;;;10.95;5.65;;;;;;;12.00;56.90;100191.69;4139265;28;20031;-72
2023/03/18 01:00:17;;;;;;;7.80;4.75;;;;;;;12.01;57.05;100196.03;4138041;28;20111;-73
2023/03/18 01:02:22;;;;;;;8.73;5.22;;;;;;;11.99;56.79;100195.16;4151633;28;20064;-74
2023/03/18 01:04:26;;;;;;;10.90;6.30;;;;;;;11.98;57.10;100199.47;4132640;28;20107;-73
2023/03/18 01:06:31;;;;;;;10.80;5.60;;;;;;;11.97;56.72;100196.88;4127792;28;20065;-73
2023/03/18 01:08:34;;;;;;;;;;;;;;;11.87;57.33;100202.03;4157582;28;20026;-74
2023/03/18 01:10:37;;;;;;;9.43;5.63;;;;;;;11.87;57.76;100193.31;4135576;28;19965;-74
2023/03/18 01:12:40;;;;;;;10.90;6.40;;;;;;;11.92;57.57;100195.97;4131633;28;20126;-73
2023/03/18 01:14:45;;;;;;;10.52;6.38;;;;;;;11.95;57.28;100196.00;4130531;28;20038;-73
2023/03/18 01:16:48;;;;;;;8.13;4.80;;;;;;;11.96;57.06;100203.84;4144330;28;20472;-73
2023/03/18 01:18:52;;;;;;;9.38;5.78;;;;;;;11.99;57.12;100201.25;4142674;28;20096;-74
2023/03/18 01:20:55;;;;;;;9.88;5.65;;;;;;;11.99;56.82;100198.63;4154688;28;20073;-73
2023/03/18 01:22:59;;;;;;;9.63;5.63;;;;;;;11.99;57.44;100192.56;4145834;28;20071;-74
2023/03/18 01:25:02;;;;;;;7.85;5.20;;;;;;;11.99;57.57;100200.38;4121793;28;20050;-73
2023/03/18 01:27:12;;;;;;;11.52;5.35;;;;;;;11.99;57.45;100192.56;4154454;28;20071;-73
2023/03/18 01:29:17;;;;;;;16.48;6.93;;;;;;;11.98;56.98;100185.59;4157337;28;20046;-73
2023/03/18 01:31:23;;;;;;;10.80;5.65;;;;;;;11.99;57.26;100187.34;4137773;28;20037;-73
2023/03/18 01:33:28;;;;;;;8.55;5.05;;;;;;;11.98;57.14;100193.41;4136715;28;20049;-73
2023/03/18 01:35:32;;;;;;;8.60;5.00;;;;;;;11.98;56.93;100196.03;4135257;28;20045;-74
2023/03/18 01:37:35;;;;;;;9.48;5.57;;;;;;;11.98;57.58;100196.88;4138586;28;20049;-73
2023/03/18 01:39:45;;;;;;;13.18;5.43;;;;;;;11.97;57.19;100200.38;4126638;28;20054;-73
2023/03/18 01:41:54;;;;;;;10.20;5.50;;;;;;;11.95;57.75;100196.00;4152014;28;20042;-74
2023/03/18 01:44:04;;;;;;;8.25;5.18;;;;;;;11.92;57.86;100188.16;4120190;28;20043;-73
2023/03/18 01:46:35;;;;;;;9.48;5.07;;;;;;;11.91;57.52;100194.22;4131013;28;20045;-74
2023/03/18 01:48:39;;;;;;;10.60;5.65;;;;;;;11.87;57.80;100194.22;4139432;28;20038;-73
2023/03/18 01:50:46;;;;;;;12.82;5.72;;;;;;;11.88;57.45;100195.97;4148842;28;20129;-73
2023/03/18 01:52:53;;;;;;;11.43;5.05;;;;;;;11.87;57.28;100194.22;4122939;28;20053;-74
2023/03/18 01:54:59;;;;;;;12.23;6.22;;;;;;;11.90;57.85;100184.66;4134408;28;20125;-74
2023/03/18 01:57:03;;;;;;;12.43;6.32;;;;;;;11.90;58.11;100177.72;4137490;28;20050;-74
2023/03/18 01:59:08;;;;;;;9.25;5.40;;;;;;;11.83;57.88;100174.22;4140418;28;20042;-73
2023/03/18 02:01:13;;;;;;;;;;;;;;;11.73;58.43;100171.56;4142766;28;20046;-74
2023/03/18 02:03:19;;;;;;;10.70;5.07;;;;;;;11.70;58.07;100168.06;4141555;28;20463;-73
2023/03/18 02:05:26;;;;;;;9.27;5.65;;;;;;;11.77;57.64;100170.69;4138003;28;20513;-73
2023/03/18 02:07:32;;;;;;;10.55;5.38;;;;;;;11.80;58.06;100171.59;4132630;28;20371;-73
2023/03/18 02:09:35;;;;;;;10.85;5.15;;;;;;;11.83;57.95;100168.16;4136825;28;20130;-73
2023/03/18 02:11:43;;;;;;;9.95;5.35;;;;;;;11.83;57.89;100175.97;4144153;28;20049;-74
2023/03/18 02:13:50;;;;;;;9.85;5.60;;;;;;;11.84;58.13;100172.47;4156363;28;20459;-73
2023/03/18 02:15:56;;;;;;;12.05;6.05;;;;;;;11.84;57.93;100169.88;4145273;28;20038;-74
2023/03/18 02:18:04;;;;;;;10.20;5.90;;;;;;;11.84;57.62;100175.97;4133022;28;20092;-74
2023/03/18 02:20:21;;;;;;;11.35;6.28;;;;;;;11.85;57.57;100180.28;4135896;28;20489;-74
2023/03/18 02:22:29;;;;;;;10.05;5.85;;;;;;;11.85;58.12;100182.91;4140449;28;20042;-74
2023/03/18 02:24:49;;;;;;;10.23;5.45;;;;;;;11.86;58.09;100192.47;4135869;28;20417;-74
2023/03/18 02:26:59;;;;;;;9.63;5.47;;;;;;;11.83;58.69;100188.97;4134581;28;20045;-74
2023/03/18 02:29:14;;;;;;;15.43;6.45;;;;;;;11.82;58.61;100197.66;4133743;28;20122;-73
2023/03/18 02:31:24;;;;;;;9.63;5.00;;;;;;;11.80;58.95;100199.38;4131073;28;20034;-73
2023/03/18 02:33:32;;;;;;;10.63;5.87;;;;;;;11.79;59.08;100195.03;4133266;28;20093;-73
2023/03/18 02:35:35;;;;;;;8.77;5.63;;;;;;;11.78;59.07;100199.34;4155828;28;20057;-73
2023/03/18 02:37:39;;;;;;;9.57;5.27;;;;;;;11.77;59.31;100189.81;4136927;28;20034;-73
2023/03/18 02:39:42;;;;;;;8.23;5.25;;;;;;;11.78;59.51;100191.53;4145921;28;20120;-73
2023/03/18 02:41:47;;;;;;;8.95;5.43;;;;;;;11.81;59.07;100188.09;4128282;28;20054;-74
2023/03/18 02:43:53;;;;;;;10.48;5.78;;;;;;;11.76;59.02;100193.28;4129987;28;20050;-74
2023/03/18 02:46:12;;;;;;;10.32;5.68;;;;;;;11.77;59.20;100191.53;4134261;28;20038;-73
2023/03/18 02:48:20;;;;;;;14.82;5.50;;;;;;;11.76;59.34;100195.03;4137366;28;20171;-72
2023/03/18 02:50:23;;;;;;;10.73;6.05;;;;;;;11.64;59.42;100196.69;4133478;28;20038;-73
2023/03/18 02:52:26;;;;;;;9.50;5.28;;;;;;;11.64;60.01;100201.03;4134246;28;20264;-73
2023/03/18 02:54:31;;;;;;;13.32;6.18;;;;;;;11.65;60.25;100202.75;4134066;28;20077;-73
2023/03/18 02:56:34;;;;;;;9.32;5.53;;;;;;;11.65;59.13;100203.66;4136971;28;20052;-74
2023/03/18 02:58:37;;;;;;;12.23;6.10;;;;;;;11.69;58.95;100199.31;4138590;28;20038;-73
2023/03/18 03:00:40;;;;;;;11.20;6.00;;;;;;;11.73;58.67;100201.09;4120027;28;20031;-73
2023/03/18 03:02:45;;;;;;;10.77;5.82;;;;;;;11.71;58.94;100208.03;4146410;28;20056;-73
2023/03/18 03:04:48;;;;;;;10.30;6.53;;;;;;;11.70;58.41;100204.53;4129646;28;20073;-73
2023/03/18 03:06:55;;;;;;;9.20;5.15;;;;;;;11.76;58.63;100206.31;4134675;28;20066;-73
2023/03/18 03:09:13;;;;;;;9.68;5.20;;;;;;;11.77;58.50;100199.34;4138246;28;20062;-74
2023/03/18 03:11:16;;;;;;;10.90;5.80;;;;;;;11.77;58.24;100208.06;4135684;28;20073;-73
2023/03/18 03:13:22;;;;;;;11.18;5.60;;;;;;;11.75;58.31;100206.28;4131585;28;20050;-73
2023/03/18 03:15:27;;;;;;;13.15;6.40;;;;;;;11.74;58.55;100214.97;4135085;28;20038;-73
2023/03/18 03:17:33;;;;;;;9.20;4.97;;;;;;;11.72;58.33;100212.34;4153336;28;20042;-74
2023/03/18 03:19:37;;;;;;;10.32;5.63;;;;;;;11.75;58.19;100209.75;4125751;28;20042;-73
2023/03/18 03:21:40;;;;;;;10.18;5.72;;;;;;;11.73;57.94;100218.44;4138196;28;20113;-73
2023/03/18 03:23:44;;;;;;;9.13;5.90;;;;;;;11.71;58.15;100215.84;4130548;28;20038;-73
2023/03/18 03:25:49;;;;;;;11.15;5.43;;;;;;;11.72;58.83;100219.31;4128275;28;20070;-74
2023/03/18 03:27:54;;;;;;;9.85;5.28;;;;;;;11.71;58.46;100221.03;4135705;28;20053;-74
2023/03/18 03:29:59;;;;;;;10.00;6.30;;;;;;;11.65;59.01;100218.38;4136515;28;20092;-73
2023/03/18 03:32:02;;;;;;;8.95;5.32;;;;;;;11.62;58.86;100216.66;4139294;28;20754;-74
2023/03/18 03:34:06;;;;;;;8.55;5.55;;;;;;;11.60;59.19;100223.56;4137858;28;20056;-73
2023/03/18 03:36:15;;;;;;;9.50;5.22;;;;;;;11.61;58.75;100222.72;4110308;28;20043;-75
2023/03/18 03:38:18;;;;;;;9.57;5.75;;;;;;;11.60;58.65;100215.75;4151108;28;20494;-74
2023/03/18 03:40:21;;;;;;;13.95;6.07;;;;;;;11.59;58.69;100215.75;4129010;28;20046;-74
2023/03/18 03:42:25;;;;;;;10.48;5.38;;;;;;;11.65;58.90;100218.38;4149117;28;20431;-73
2023/03/18 03:44:29;;;;;;;11.75;4.68;;;;;;;11.61;59.08;100214.91;4151826;28;20044;-73
2023/03/18 03:46:31;;;;;;;8.15;4.95;;;;;;;11.59;58.92;100218.34;4151772;28;20042;-73
2023/03/18 03:48:37;;;;;;;10.27;5.10;;;;;;;11.65;58.61;100220.97;4135322;28;20056;-73
2023/03/18 03:50:43;;;;;;;16.45;6.07;;;;;;;11.62;58.69;100232.28;4132721;28;20054;-73
2023/03/18 03:52:48;;;;;;;7.70;5.22;;;;;;;11.63;58.32;100230.53;4129760;28;20073;-73
2023/03/18 03:54:50;;;;;;;;;;;;;;;11.52;58.48;100233.94;4129849;28;20042;-73
2023/03/18 03:56:53;;;;;;;11.88;5.60;;;;;;;11.51;58.71;100226.13;4140761;28;19925;-74
2023/03/18 03:58:56;;;;;;;11.05;5.93;;;;;;;11.52;58.85;100223.53;4141757;28;20505;-73
2023/03/18 04:01:08;;;;;;;9.40;5.47;;;;;;;11.52;58.15;100218.31;4119650;28;20058;-72
2023/03/18 04:03:12;;;;;;;12.15;6.10;;;;;;;11.52;58.73;100223.53;4134449;28;20038;-73
2023/03/18 04:05:17;;;;;;;7.22;4.60;;;;;;;11.56;58.53;100220.94;4130173;28;20654;-73
2023/03/18 04:07:20;;;;;;;9.30;5.55;;;;;;;11.54;58.13;100220.94;4127410;28;20038;-74
2023/03/18 04:09:24;;;;;;;11.38;5.20;;;;;;;11.52;58.48;100223.53;4140735;28;20034;-73
2023/03/18 04:11:27;;;;;;;9.10;5.05;;;;;;;11.57;58.30;100230.50;4123361;28;20057;-73
2023/03/18 04:13:30;;;;;;;11.18;5.47;;;;;;;11.52;58.18;100230.44;4136416;28;20034;-72
2023/03/18 04:15:33;;;;;;;10.38;5.25;;;;;;;11.53;57.76;100234.81;4148425;28;20038;-73
2023/03/18 04:17:49;;;;;;;10.13;4.43;;;;;;;11.53;58.07;100235.69;4141548;28;20117;-74
2023/03/18 04:19:53;;;;;;;9.85;5.97;;;;;;;11.55;58.23;100232.22;4136648;28;20481;-73
2023/03/18 04:21:58;;;;;;;11.05;6.28;;;;;;;11.46;58.21;100239.13;4140152;28;20084;-72
2023/03/18 04:24:02;;;;;;;7.38;4.55;;;;;;;11.43;58.52;100233.00;4144033;28;20070;-72
2023/03/18 04:26:08;;;;;;;10.25;5.13;;;;;;;11.43;58.98;100233.84;4134576;28;20044;-73
2023/03/18 04:28:11;;;;;;;;;;;;;;;11.34;59.19;100236.41;4130858;28;20077;-73
2023/03/18 04:30:14;;;;;;;7.75;4.78;;;;;;;11.33;58.91;100226.84;4116755;28;20505;-73
2023/03/18 04:32:29;;;;;;;9.60;5.00;;;;;;;11.34;58.65;100226.84;4140842;28;20041;-73
2023/03/18 04:34:32;;;;;;;12.07;5.47;;;;;;;11.37;58.73;100231.22;4153983;28;20037;-73
2023/03/18 04:36:35;;;;;;;11.13;5.00;;;;;;;11.38;58.11;100230.38;4133539;28;20110;-71
2023/03/18 04:38:38;;;;;;;10.40;4.47;;;;;;;11.41;58.25;100240.81;4205672;22;20049;-69
2023/03/18 04:40:41;;;;;;;7.65;4.22;;;;;;;11.41;58.45;100227.78;4147961;28;20038;-69
2023/03/18 04:42:46;;;;;;;10.77;4.68;;;;;;;11.44;57.33;100235.59;4159798;28;20092;-69
2023/03/18 04:44:51;;;;;;;10.63;5.13;;;;;;;11.45;57.31;100239.97;4146765;28;20045;-69
2023/03/18 04:46:54;;;;;;;8.57;4.65;;;;;;;11.45;57.30;100239.97;4171395;28;20091;-69
2023/03/18 04:48:58;;;;;;;9.48;4.35;;;;;;;11.44;57.15;100235.59;4160188;28;20057;-69
2023/03/18 04:51:01;;;;;;;10.07;4.22;;;;;;;11.46;57.29;100233.91;4159775;28;20037;-69
2023/03/18 04:53:05;;;;;;;15.18;4.43;;;;;;;11.48;56.30;100239.97;4161301;28;20029;-69
2023/03/18 04:55:09;;;;;;;13.23;5.32;;;;;;;11.47;56.44;100245.19;4162467;28;20040;-69
2023/03/18 04:57:13;;;;;;;9.98;4.65;;;;;;;11.57;56.18;100241.78;4162527;28;20068;-69
2023/03/18 04:59:24;;;;;;;8.52;4.45;;;;;;;11.50;55.71;100233.03;4160920;28;20048;-69
2023/03/18 05:01:28;;;;;;;8.45;4.32;;;;;;;11.46;56.58;100238.22;4160502;28;20054;-69
2023/03/18 05:03:31;;;;;;;6.18;3.67;;;;;;;11.44;56.63;100239.97;4161914;28;20440;-69
2023/03/18 05:05:34;;;;;;;11.35;4.43;;;;;;;11.43;56.03;100239.06;4162145;28;20543;-69
2023/03/18 05:07:42;;;;;;;7.45;4.13;;;;;;;11.44;55.58;100229.53;4164807;28;20041;-69
2023/03/18 05:09:48;;;;;;;9.60;4.38;;;;;;;11.41;55.42;100239.94;4155931;28;20041;-69
2023/03/18 05:11:51;;;;;;;8.57;4.18;;;;;;;11.41;55.55;100245.16;4162144;28;20042;-69
2023/03/18 05:14:02;;;;;;;8.63;4.72;;;;;;;11.45;54.76;100245.16;4168616;28;20040;-69
2023/03/18 05:16:15;;;;;;;8.43;4.53;;;;;;;11.46;54.60;100248.63;4168318;28;20072;-69
2023/03/18 05:18:18;;;;;;;10.30;3.78;;;;;;;11.45;54.81;100247.78;4173638;28;20072;-69
2023/03/18 05:20:24;;;;;;;8.40;3.95;;;;;;;11.43;55.24;100244.28;4175327;28;20033;-69
2023/03/18 05:22:27;;;;;;;8.00;4.15;;;;;;;11.44;54.71;100251.22;4171264;28;20041;-69
2023/03/18 05:24:39;;;;;;;6.82;3.55;;;;;;;11.45;54.92;100247.78;4174432;28;20401;-69
2023/03/18 05:26:43;;;;;;;8.15;3.60;;;;;;;11.43;54.90;100251.22;4162323;28;20501;-68
2023/03/18 05:28:47;;;;;;;9.95;3.88;;;;;;;11.43;54.60;100256.44;4161590;28;20096;-69
2023/03/18 05:31:11;;;;;;;7.10;3.22;;;;;;;11.42;54.67;100257.28;4162812;28;20094;-68
2023/03/18 05:33:17;;;;;;;7.30;3.15;;;;;;;11.41;54.76;100253.81;4170196;28;20099;-69
2023/03/18 05:35:26;;;;;;;9.18;4.45;;;;;;;11.40;54.92;100249.47;4147019;28;20056;-69
2023/03/18 05:37:30;;;;;;;9.77;3.55;;;;;;;11.38;55.17;100251.19;4165572;28;20393;-69
2023/03/18 05:39:39;;;;;;;8.88;3.58;;;;;;;11.39;54.90;100252.94;4161765;28;20066;-69
2023/03/18 05:41:47;;;;;;;10.13;3.92;;;;;;;11.39;55.23;100259.84;4159276;28;20485;-70
2023/03/18 05:43:57;;;;;;;9.38;3.42;;;;;;;11.38;55.72;100261.59;4161738;28;21107;-69
2023/03/18 05:46:03;;;;;;;9.02;3.28;;;;;;;11.37;55.28;100257.25;4176642;28;20044;-69
2023/03/18 05:48:26;;;;;;;6.68;3.75;;;;;;;11.33;55.67;100266.78;4156405;28;20060;-69
2023/03/18 05:50:36;;;;;;;9.23;3.85;;;;;;;11.33;56.59;100258.06;4169288;28;20044;-70
2023/03/18 05:52:43;;;;;;;7.55;4.03;;;;;;;11.33;56.53;100263.28;4173448;28;20531;-69
2023/03/18 05:54:53;;;;;;;8.73;4.30;;;;;;;11.32;56.23;100257.22;4158303;28;20548;-69
2023/03/18 05:57:01;;;;;;;6.68;3.28;;;;;;;11.32;56.55;100261.56;4177103;28;20040;-69
2023/03/18 05:59:04;;;;;;;8.38;4.22;;;;;;;11.32;56.64;100256.34;4165211;28;20041;-70
2023/03/18 06:01:15;;;;;;;7.28;3.72;;;;;;;11.33;56.33;100255.47;4165953;28;20098;-69
2023/03/18 06:03:19;;;;;;;10.15;3.58;;;;;;;11.39;56.69;100263.34;4178004;28;20045;-69
2023/03/18 06:05:24;;;;;;;7.65;3.35;;;;;;;11.37;57.16;100259.00;4174863;28;20049;-69
2023/03/18 06:07:27;;;;;;;6.45;3.47;;;;;;;11.38;56.36;100261.59;4147248;28;20080;-69
2023/03/18 06:09:32;;;;;;;10.27;4.10;;;;;;;11.39;56.07;100263.34;4176882;28;20412;-69
2023/03/18 06:11:35;;;;;;;7.78;3.53;;;;;;;11.39;56.12;100271.16;4177740;28;20061;-69
2023/03/18 06:13:38;;;;;;;8.27;4.43;;;;;;;11.42;55.23;100270.28;4161448;28;20531;-68
2023/03/18 06:15:41;;;;;;;7.45;3.20;;;;;;;11.40;55.90;100275.50;4160668;28;20040;-69
2023/03/18 06:17:44;;;;;;;9.13;3.45;;;;;;;11.42;55.66;100272.88;4173991;28;20131;-69
2023/03/18 06:19:47;;;;;;;7.47;3.85;;;;;;;11.48;55.62;100286.84;4162530;28;20033;-69
2023/03/18 06:21:52;;;;;;;6.45;3.17;;;;;;;11.47;54.96;100282.47;4164416;28;20088;-69
2023/03/18 06:23:55;;;;;;;7.18;3.38;;;;;;;11.48;55.29;100275.56;4162120;28;20535;-69
2023/03/18 06:25:58;;;;;;;7.90;2.78;;;;;;;11.52;55.28;100282.50;4159110;28;20120;-69
2023/03/18 06:28:06;;;;;;;10.27;3.30;;;;;;;11.53;55.03;100287.75;4157891;28;20034;-69
2023/03/18 06:30:10;;;;;;;6.50;3.33;;;;;;;11.59;54.44;100280.84;4139218;28;20062;-69
2023/03/18 06:32:14;;;;;;;7.03;3.03;;;;;;;11.59;54.83;100280.84;4171325;28;20128;-68
2023/03/18 06:34:17;;;;;;;7.18;3.53;;;;;;;11.61;54.79;100276.50;4168263;28;20030;-68
2023/03/18 06:36:21;;;;;;;6.10;2.85;;;;;;;11.65;55.16;100276.56;4175759;28;20076;-69
2023/03/18 06:38:27;;;;;;;4.40;2.65;;;;;;;11.67;54.68;100280.03;4167962;28;20075;-69
2023/03/18 06:40:32;;;;;;;8.02;3.42;;;;;;;11.66;54.11;100282.63;4160964;28;20068;-69
2023/03/18 06:42:35;;;;;;;6.22;2.55;;;;;;;11.67;54.59;100282.63;4171357;28;20057;-69
2023/03/18 06:44:49;;;;;;;5.25;2.95;;;;;;;11.69;54.26;100277.44;4160853;28;20053;-69
2023/03/18 06:46:56;;;;;;;5.15;3.00;;;;;;;11.69;54.12;100282.66;4159184;28;20033;-69
2023/03/18 06:49:00;;;;;;;5.05;2.92;;;;;;;11.72;54.38;100282.66;4145096;28;20042;-69
2023/03/18 06:51:07;;;;;;;6.82;2.80;;;;;;;11.73;54.33;100289.63;4152976;28;20037;-69
2023/03/18 06:53:14;;;;;;;8.40;3.65;;;;;;;11.76;54.69;100288.78;4157408;28;20983;-69
2023/03/18 06:55:19;;;;;;;12.63;3.35;;;;;;;11.78;54.05;100292.25;4171197;28;20128;-69
2023/03/18 06:57:22;;;;;;;5.53;2.50;;;;;;;11.77;55.11;100286.19;4161472;28;20095;-69
2023/03/18 06:59:25;;;;;;;11.88;3.00;;;;;;;11.80;54.48;100290.56;4171796;28;20048;-69
2023/03/18 07:01:29;;;;;;;5.32;2.78;;;;;;;11.81;54.67;100297.47;4168790;28;20136;-69
2023/03/18 07:03:32;;;;;;;5.38;3.35;;;;;;;11.84;54.44;100293.19;4170741;28;20044;-69
2023/03/18 07:05:35;;;;;;;6.68;3.08;;;;;;;11.84;54.67;100292.28;4172644;28;20037;-68
2023/03/18 07:07:40;;;;;;;7.95;3.05;;;;;;;11.84;55.24;100293.19;4136658;28;20046;-69
2023/03/18 07:09:44;;;;;;;7.32;2.95;;;;;;;11.86;55.04;100294.03;4171912;28;20142;-68
2023/03/18 07:11:49;;;;;;;5.57;2.70;;;;;;;11.90;54.47;100296.66;4174382;28;20116;-68
2023/03/18 07:13:56;;;;;;;6.60;2.58;;;;;;;11.93;54.94;100301.88;4154519;28;20073;-68
2023/03/18 07:16:03;;;;;;;11.88;3.00;;;;;;;11.98;54.09;100305.44;4164114;28;20801;-68
2023/03/18 07:18:06;;;;;;;11.18;3.67;;;;;;;12.03;54.36;100302.00;4149290;28;20479;-68
2023/03/18 07:20:10;;;;;;;6.40;2.67;;;;;;;12.08;53.93;100307.22;4154041;28;20069;-68
2023/03/18 07:22:14;;;;;;;7.32;3.75;;;;;;;12.13;54.14;100305.50;4156819;28;20099;-68
2023/03/18 07:24:19;;;;;;;8.60;3.13;;;;;;;12.22;53.13;100302.97;4143075;28;20130;-69
2023/03/18 07:26:23;;;;;;;4.15;2.20;;;;;;;12.29;52.91;100313.41;4151608;28;20519;-69
2023/03/18 07:28:27;;;;;;;4.43;2.03;;;;;;;12.34;53.22;100309.13;4164867;28;20052;-69
2023/03/18 07:30:30;;;;;;;6.28;2.88;;;;;;;12.35;54.90;100309.13;4144407;28;20112;-69
2023/03/18 07:32:34;;;;;;;5.68;2.60;;;;;;;12.44;55.20;100310.00;4159593;28;20072;-69
2023/03/18 07:34:37;;;;;;;;;;;;;;;12.48;55.04;100299.59;4174686;28;20039;-69
2023/03/18 07:36:40;;;;;;;5.05;2.40;;;;;;;12.56;55.07;100304.84;4175941;28;19924;-68
2023/03/18 07:38:43;;;;;;;5.20;2.30;;;;;;;12.71;53.65;100299.66;4175373;28;20547;-68
2023/03/18 07:40:47;;;;;;;5.03;2.80;;;;;;;12.77;53.56;100298.81;4175204;28;20063;-68
2023/03/18 07:42:50;;;;;;;5.38;2.53;;;;;;;12.82;52.83;100302.31;4176608;28;20029;-68
2023/03/18 07:44:55;;;;;;;7.43;2.70;;;;;;;12.86;51.93;100313.63;4177120;28;20099;-68
2023/03/18 07:46:58;;;;;;;6.10;2.75;;;;;;;12.97;51.36;100305.84;4175530;28;20060;-68
2023/03/18 07:49:01;;;;;;;2.95;1.77;;;;;;;13.03;51.66;100300.63;4177341;28;20044;-68
2023/03/18 07:51:04;;;;;;;3.42;1.80;;;;;;;13.10;50.73;100304.97;4176677;28;20039;-68
2023/03/18 07:53:07;;;;;;;6.45;2.47;;;;;;;13.09;49.74;100305.84;4177993;28;20040;-69
2023/03/18 07:55:10;;;;;;;3.33;1.92;;;;;;;13.09;50.57;100300.63;4172079;28;20043;-70
2023/03/18 07:57:13;;;;;;;5.68;2.63;;;;;;;13.19;50.69;100304.13;4172360;28;20043;-69
2023/03/18 07:59:16;;;;;;;7.18;1.95;;;;;;;13.26;49.80;100309.34;4176503;28;20037;-71
2023/03/18 08:01:22;;;;;;;5.85;2.35;;;;;;;13.31;49.28;100314.56;4156592;28;20030;-70
2023/03/18 08:03:24;;;;;;;4.43;2.22;;;;;;;13.31;49.42;100313.69;4173926;28;20060;-70
2023/03/18 08:05:27;;;;;;;6.40;2.47;;;;;;;13.29;49.17;100311.09;4177501;28;20068;-70
2023/03/18 08:07:30;;;;;;;5.30;1.77;;;;;;;13.33;49.61;100312.84;4177939;28;20036;-70
2023/03/18 08:09:33;;;;;;;5.05;1.80;;;;;;;13.38;49.72;100310.25;4177819;28;20621;-70
2023/03/18 08:11:37;;;;;;;5.47;2.40;;;;;;;13.36;49.95;100310.25;4171670;28;20087;-70
2023/03/18 08:13:39;;;;;;;5.32;2.25;;;;;;;13.36;50.29;100315.47;4176209;28;20491;-70
2023/03/18 08:15:43;;;;;;;6.22;2.60;;;;;;;13.44;51.32;100308.50;4176023;28;20555;-70
2023/03/18 08:17:47;;;;;;;7.88;2.10;;;;;;;13.52;50.07;100310.25;4172911;28;20087;-69
2023/03/18 08:19:50;;;;;;;5.88;2.28;;;;;;;13.62;50.07;100317.19;4175912;28;20082;-76
2023/03/18 08:21:54;;;;;;;5.82;2.20;;;;;;;13.65;50.12;100314.59;4154809;28;20087;-68
2023/03/18 08:23:57;;;;;;;7.28;2.28;;;;;;;13.72;49.79;100313.72;4158642;28;20038;-72
2023/03/18 08:26:00;;;;;;;4.93;2.00;;;;;;;13.80;49.56;100316.34;4169422;28;20072;-69
2023/03/18 08:28:06;;;;;;;5.30;1.77;;;;;;;13.86;48.89;100311.09;4162506;28;20526;-73
2023/03/18 08:30:10;;;;;;;5.20;1.92;;;;;;;13.96;48.26;100311.94;4176837;28;20033;-71
2023/03/18 08:32:14;;;;;;;2.75;1.50;;;;;;;14.05;46.72;100311.06;4174702;28;20029;-72
2023/03/18 08:34:18;;;;;;;5.00;1.92;;;;;;;14.08;46.48;100318.88;4179666;28;20059;-67
2023/03/18 08:36:21;;;;;;;6.75;1.73;;;;;;;14.05;46.56;100316.28;4155124;28;21040;-69
2023/03/18 08:38:24;;;;;;;3.63;1.50;;;;;;;14.05;45.94;100317.16;4174803;28;20041;-74
2023/03/18 08:40:27;;;;;;;5.82;2.28;;;;;;;14.09;46.76;100307.53;4174441;28;20041;-68
2023/03/18 08:42:30;;;;;;;3.97;1.70;;;;;;;14.05;47.05;100311.06;4174150;28;20060;-69
2023/03/18 08:44:33;;;;;;;3.08;1.80;;;;;;;14.02;48.44;100318.88;4157760;28;20520;-66
2023/03/18 08:46:35;;;;;;;7.32;2.10;;;;;;;14.04;46.92;100319.75;4159002;28;20063;-66
2023/03/18 08:48:40;;;;;;;3.58;2.03;;;;;;;14.06;47.27;100323.22;4175351;28;20045;-73
2023/03/18 08:50:44;;;;;;;;;;;;;;;14.14;48.12;100318.88;4171444;28;20536;-59
2023/03/18 08:52:47;;;;;;;6.40;2.05;;;;;;;14.19;48.51;100318.84;4155908;28;19975;-61
2023/03/18 08:54:50;;;;;;;6.93;2.10;;;;;;;14.31;47.97;100319.69;4168603;28;20060;-61
2023/03/18 08:56:54;;;;;;;7.25;1.80;;;;;;;14.43;46.54;100315.28;4171550;28;20128;-61
2023/03/18 08:58:57;;;;;;;5.80;2.28;;;;;;;14.57;46.74;100321.34;4157406;28;20053;-61
2023/03/18 09:01:02;;;;;;;5.35;2.25;;;;;;;14.71;46.13;100316.06;4176664;28;20386;-59
2023/03/18 09:03:05;;;;;;;4.53;1.70;;;;;;;14.78;46.07;100319.53;4172674;28;20029;-59
2023/03/18 09:05:08;;;;;;;3.30;1.95;;;;;;;14.85;45.42;100310.75;4175595;28;20120;-59
2023/03/18 09:07:13;;;;;;;3.65;1.92;;;;;;;14.88;46.01;100313.34;4151777;28;20045;-59
2023/03/18 09:09:16;;;;;;;;;;;;;;;14.97;45.99;100310.69;4158823;28;20079;-59
2023/03/18 09:11:19;;;;;;;3.60;2.00;;;;;;;15.06;45.27;100303.66;4162213;28;19929;-59
2023/03/18 09:13:22;;;;;;;9.60;2.55;;;;;;;15.06;45.67;100303.66;4174222;28;20061;-59
2023/03/18 09:15:26;;;;;;;8.65;2.70;;;;;;;15.18;45.57;100300.94;4178097;28;20067;-59
2023/03/18 09:17:29;;;;;;;4.70;1.57;;;;;;;15.29;45.47;100300.88;4173940;28;20044;-59
2023/03/18 09:19:52;;;;;;;5.45;2.50;;;;;;;15.43;44.88;100304.22;4174616;28;20288;-59
2023/03/18 09:21:55;;;;;;;3.78;1.80;;;;;;;15.53;45.16;100295.41;4176914;28;20040;-60
2023/03/18 09:23:59;;;;;;;2.33;1.63;;;;;;;15.64;44.44;100300.56;4178321;28;20041;-59
2023/03/18 09:26:02;;;;;;;4.75;2.08;;;;;;;15.70;43.23;100297.03;4171579;28;20114;-60
2023/03/18 09:28:05;;;;;;;5.53;2.30;;;;;;;15.79;43.67;100293.47;4169996;28;20060;-59
2023/03/18 09:30:10;;;;;;;5.03;1.70;;;;;;;15.84;43.37;100294.28;4174467;28;20087;-60
2023/03/18 09:32:13;;;;;;;4.18;1.80;;;;;;;15.89;44.15;100287.25;4174095;28;20033;-60
2023/03/18 09:34:15;;;;;;;4.53;1.65;;;;;;;15.97;44.62;100284.53;4163441;28;20084;-60
2023/03/18 09:36:19;;;;;;;5.30;1.45;;;;;;;16.10;43.57;100286.13;4172293;28;20037;-60
2023/03/18 09:38:22;;;;;;;5.82;1.90;;;;;;;16.21;43.16;100281.63;4164805;28;20045;-59
2023/03/18 09:40:29;;;;;;;5.45;2.10;;;;;;;16.38;42.60;100285.81;4167422;28;20095;-70
2023/03/18 09:42:47;;;;;;;4.15;1.90;;;;;;;16.53;41.92;100279.50;4173935;28;20510;-71